Time;durP1;ratioP1;P1;durP2;ratioP2;P2;SDS_P1;SDS_P2;PMS_P1;PMS_P2;Temp;Humidity;BMP_temperature;BMP_pressure;BME280_temperature;BME280_humidity;BME280_pressure;Samples;Min_cycle;Max_cycle;Signal;HPM_P1;HPM_P2
2022/06/02 00:00:44;;;;;;;;;;;;;;;13.98;53.93;100232.69;6247660;23;19919;-75
2022/06/02 00:03:30;;;;;;;;;;;;;;;13.96;53.89;100229.28;6220274;23;20010;-75
2022/06/02 00:06:07;;;;;;;;;;;;;;;13.92;54.09;100239.44;6245222;23;19926;-74
2022/06/02 00:08:46;;;;;;;;;;;;;;;13.92;54.06;100242.13;6195551;23;19920;-75
2022/06/02 00:11:30;;;;;;;;;;;;;;;13.92;53.82;100239.44;6246213;23;20347;-74
2022/06/02 00:14:04;;;;;;;;;;;;;;;13.94;53.91;100239.28;6195207;23;20340;-74
2022/06/02 00:16:33;;;;;;;;;;;;;;;13.95;53.65;100243.69;6245724;23;19926;-74
2022/06/02 00:19:02;;;;;;;;;;;;;;;13.97;53.59;100242.59;6220200;23;19920;-76
2022/06/02 00:21:28;;;;;;;;;;;;;;;13.96;54.29;100245.41;6198068;23;20328;-76
2022/06/02 00:24:03;;;;;;;;;;;;;;;13.98;54.39;100249.66;6223797;23;19920;-75
2022/06/02 00:26:40;;;;;;;;;;;;;;;14.00;54.03;100252.25;6198372;23;20331;-75
2022/06/02 00:29:08;;;;;;;;;;;;;;;14.04;54.16;100259.09;6221698;23;19982;-75
2022/06/02 00:31:40;;;;;;;;;;;;;;;14.05;54.12;100261.66;6244950;23;19919;-75
2022/06/02 00:34:24;;;;;;;;;;;;;;;14.09;53.79;100265.81;6220703;23;19972;-75
2022/06/02 00:37:11;;;;;;;;;;;;;;;14.14;53.72;100259.19;6195369;23;20497;-74
2022/06/02 00:39:38;;;;;;;;;;;;;;;14.18;53.56;100261.53;6195135;23;20032;-75
2022/06/02 00:42:06;;;;;;;;;;;;;;;14.23;53.46;100270.09;6220039;23;19920;-76
2022/06/02 00:44:36;;;;;;;;;;;;;;;14.26;53.69;100272.53;6245113;23;19927;-74
2022/06/02 00:47:03;;;;;;;;;;;;;;;14.32;53.98;100271.16;6245078;23;19926;-75
2022/06/02 00:49:34;;;;;;;;;;;;;;;14.36;54.00;100274.47;6244707;23;19920;-75
2022/06/02 00:52:12;;;;;;;;;;;;;;;14.39;53.83;100271.53;6220226;23;19926;-76
2022/06/02 00:57:31;;;;;;;;;;;;;;;14.44;53.96;100274.69;6245298;23;19966;-75
2022/06/02 01:00:17;;;;;;;;;;;;;;;14.44;54.15;100282.75;6246359;22;19924;-76
2022/06/02 01:02:45;;;;;;;;;;;;;;;14.46;53.90;100280.81;6244009;23;19951;-75
2022/06/02 01:05:12;;;;;;;;;;;;;;;14.47;54.62;100283.38;6194781;23;19973;-75
2022/06/02 01:07:37;;;;;;;;;;;;;;;14.48;54.64;100285.09;6219875;23;19951;-77
2022/06/02 01:10:06;;;;;;;;;;;;;;;14.48;55.24;100294.97;6244739;23;19970;-75
2022/06/02 01:12:35;;;;;;;;;;;;;;;14.47;55.43;100287.91;6219557;23;20367;-74
2022/06/02 01:15:01;;;;;;;;;;;;;;;14.50;55.64;100288.53;6194561;23;19920;-75
2022/06/02 01:17:47;;;;;;;;;;;;;;;14.54;55.61;100290.00;6219173;23;20354;-76
2022/06/02 01:20:36;;;;;;;;;;;;;;;14.58;55.61;100298.66;6244877;23;20358;-75
2022/06/02 01:23:08;;;;;;;;;;;;;;;14.61;55.63;100290.34;6219737;23;20288;-76
2022/06/02 01:25:51;;;;;;;;;;;;;;;14.63;55.77;100293.78;6244961;23;19919;-75
2022/06/02 01:28:32;;;;;;;;;;;;;;;14.72;55.63;100301.09;6220287;23;19930;-75
2022/06/02 01:30:58;;;;;;;;;;;;;;;14.79;55.46;100294.22;6194260;23;19942;-75
2022/06/02 01:33:45;;;;;;;;;;;;;;;14.85;55.54;100294.69;6194610;23;20339;-75
2022/06/02 01:36:14;;;;;;;;;;;;;;;14.87;55.40;100295.44;6219579;23;19998;-75
2022/06/02 01:38:40;;;;;;;;;;;;;;;14.92;55.43;100304.81;6219377;23;19926;-75
2022/06/02 01:41:05;;;;;;;;;;;;;;;14.99;55.05;100302.50;6219262;23;19919;-75
2022/06/02 01:43:35;;;;;;;;;;;;;;;15.05;55.24;100302.84;6244903;23;20006;-75
2022/06/02 01:46:10;;;;;;;;;;;;;;;15.06;55.20;100309.06;6194330;23;19920;-75
2022/06/02 01:48:51;;;;;;;;;;;;;;;15.12;54.65;100308.56;6244988;23;19920;-75
2022/06/02 01:51:34;;;;;;;;;;;;;;;15.19;54.69;100307.06;6219769;23;19919;-76
2022/06/02 01:54:02;;;;;;;;;;;;;;;15.28;54.50;100311.69;6245434;23;19923;-75
2022/06/02 01:56:28;;;;;;;;;;;;;;;15.36;54.41;100307.47;6194835;23;19954;-76
2022/06/02 01:59:01;;;;;;;;;;;;;;;15.37;53.98;100298.41;6244201;23;20275;-75
2022/06/02 02:01:42;;;;;;;;;;;;;;;15.49;53.71;100308.13;6194203;23;19949;-74
2022/06/02 02:04:14;;;;;;;;;;;;;;;15.62;53.69;100305.28;6245073;23;19930;-76
2022/06/02 02:06:39;;;;;;;;;;;;;;;15.70;53.45;100305.50;6244678;23;19955;-76
2022/06/02 02:09:05;;;;;;;;;;;;;;;15.77;53.34;100314.75;6219762;23;19987;-77
2022/06/02 02:11:50;;;;;;;;;;;;;;;15.78;53.44;100309.22;6219693;23;19920;-75
2022/06/02 02:14:51;;;;;;;;;;;;;;;15.84;53.49;100309.69;6220096;23;20271;-75
2022/06/02 02:17:19;;;;;;;;;;;;;;;15.88;53.28;100312.00;6188011;23;19998;-76
2022/06/02 02:20:03;;;;;;;;;;;;;;;15.93;53.33;100308.88;6207338;23;19986;-75
2022/06/02 02:22:41;;;;;;;;;;;;;;;15.97;53.46;100321.97;6244259;23;19919;-77
2022/06/02 02:25:14;;;;;;;;;;;;;;;16.03;53.62;100313.34;6194391;23;20005;-77
2022/06/02 02:30:30;;;;;;;;;;;;;;;16.31;53.17;100310.91;6246787;23;19920;-74
2022/06/02 02:33:00;;;;;;;;;;;;;;;16.43;52.79;100317.06;6196123;23;20003;-76
2022/06/02 02:35:29;;;;;;;;;;;;;;;16.53;52.64;100323.34;6196680;23;19927;-76
2022/06/02 02:38:03;;;;;;;;;;;;;;;16.58;51.94;100315.69;6247690;23;19919;-76
2022/06/02 02:40:28;;;;;;;;;;;;;;;16.71;51.67;100316.31;6196196;23;19926;-76
2022/06/02 02:43:00;;;;;;;;;;;;;;;16.83;51.36;100310.81;6196091;23;19927;-79
2022/06/02 02:45:35;;;;;;;;;;;;;;;16.92;51.38;100318.91;6246245;23;20010;-74
2022/06/02 02:48:14;;;;;;;;;;;;;;;17.03;53.02;100312.53;6222342;23;19920;-86
2022/06/02 02:50:53;;;;;;;;;;;;;;;17.43;55.14;100314.28;6198020;23;19919;-79
2022/06/02 02:53:38;;;;;;;;;;;;;;;17.83;54.27;100315.97;6196337;23;19923;-79
2022/06/02 02:56:16;;;;;;;;;;;;;;;18.14;53.29;100319.28;6247588;23;19920;-82
2022/06/02 02:59:02;;;;;;;;;;;;;;;18.54;53.04;100316.28;6220920;23;20228;-80
2022/06/02 03:01:50;;;;;;;;;;;;;;;18.82;51.45;100324.41;6246236;23;19924;-83
2022/06/02 03:04:18;;;;;;;;;;;;;;;19.03;50.74;100327.72;6245820;23;19920;-78
2022/06/02 03:06:44;;;;;;;;;;;;;;;19.25;50.37;100322.81;6245786;23;20264;-78
2022/06/02 03:09:12;;;;;;;;;;;;;;;19.38;49.16;100324.16;6246066;23;19926;-77
2022/06/02 03:11:55;;;;;;;;;;;;;;;19.39;47.78;100333.13;6247539;22;20251;-75
2022/06/02 03:14:36;;;;;;;;;;;;;;;19.27;47.25;100326.25;6245761;23;19920;-76
2022/06/02 03:17:09;;;;;;;;;;;;;;;19.16;46.46;100330.03;6220741;23;20259;-78
2022/06/02 03:19:43;;;;;;;;;;;;;;;19.10;46.51;100334.19;6220866;23;20005;-79
2022/06/02 03:22:20;;;;;;;;;;;;;;;19.02;46.68;100331.41;6195488;23;19919;-76
2022/06/02 03:25:04;;;;;;;;;;;;;;;18.98;46.80;100340.00;6220510;23;19957;-75
2022/06/02 03:27:54;;;;;;;;;;;;;;;18.91;47.00;100337.03;6195119;23;19951;-76
2022/06/02 03:30:19;;;;;;;;;;;;;;;18.87;47.16;100336.50;6242409;23;20347;-77
2022/06/02 03:33:03;;;;;;;;;;;;;;;18.91;47.25;100334.31;6247434;22;19954;-77
2022/06/02 03:35:29;;;;;;;;;;;;;;;18.92;47.04;100334.19;6247594;23;20000;-78
2022/06/02 03:38:14;;;;;;;;;;;;;;;18.97;47.36;100336.44;6245553;23;20006;-76
2022/06/02 03:40:39;;;;;;;;;;;;;;;19.01;47.38;100331.56;6247208;23;19920;-77
2022/06/02 03:43:08;;;;;;;;;;;;;;;19.04;47.17;100337.53;6220669;23;19927;-76
2022/06/02 03:45:37;;;;;;;;;;;;;;;19.06;47.12;100335.50;6246144;23;19947;-76
2022/06/02 03:48:26;;;;;;;;;;;;;;;19.10;47.43;100334.19;6246509;23;20002;-76
2022/06/02 03:51:04;;;;;;;;;;;;;;;19.14;47.19;100330.19;6195360;23;20343;-75
2022/06/02 03:53:48;;;;;;;;;;;;;;;19.14;47.51;100330.19;6220226;23;19923;-76
2022/06/02 03:56:29;;;;;;;;;;;;;;;19.15;47.12;100323.75;6195073;23;19934;-76
2022/06/02 03:59:13;;;;;;;;;;;;;;;19.26;47.13;100321.84;6194937;23;19941;-78
2022/06/02 04:01:53;;;;;;;;;;;;;;;19.35;46.97;100320.91;6245721;23;19919;-80
2022/06/02 04:04:19;;;;;;;;;;;;;;;19.43;47.21;100329.09;6220221;23;19920;-76
2022/06/02 04:07:06;;;;;;;;;;;;;;;19.52;46.95;100322.75;6245692;23;20373;-75
2022/06/02 04:09:32;;;;;;;;;;;;;;;19.62;46.84;100328.09;6220227;23;20401;-77
2022/06/02 04:15:04;;;;;;;;;;;;;;;19.83;46.53;100333.19;6220253;23;20208;-76
2022/06/02 04:17:30;;;;;;;;;;;;;;;19.89;46.35;100324.41;6219661;23;19927;-76
2022/06/02 04:23:21;;;;;;;;;;;;;;;19.99;45.23;100314.31;6246758;23;19924;-75
2022/06/02 04:25:54;;;;;;;;;;;;;;;19.98;45.75;100322.63;6195250;23;20002;-76
2022/06/02 04:28:28;;;;;;;;;;;;;;;20.07;45.76;100327.91;6245438;23;19920;-75
2022/06/02 04:31:00;;;;;;;;;;;;;;;20.20;45.72;100319.38;6220050;23;19920;-77
2022/06/02 04:33:34;;;;;;;;;;;;;;;20.36;45.48;100321.31;6194870;23;19919;-81
2022/06/02 04:36:23;;;;;;;;;;;;;;;20.55;45.38;100315.66;6194878;23;19920;-76
2022/06/02 04:38:55;;;;;;;;;;;;;;;20.72;45.41;100321.97;6194196;23;20006;-78
2022/06/02 04:41:23;;;;;;;;;;;;;;;20.76;44.99;100322.50;6246397;22;19920;-77
2022/06/02 04:43:57;;;;;;;;;;;;;;;20.86;44.93;100326.78;6194715;23;19920;-80
2022/06/02 04:46:34;;;;;;;;;;;;;;;20.97;45.00;100330.22;6245443;23;19954;-78
2022/06/02 04:49:19;;;;;;;;;;;;;;;21.18;44.83;100321.63;6194378;23;19919;-76
2022/06/02 04:51:50;;;;;;;;;;;;;;;21.37;44.49;100321.34;6244968;23;19920;-81
2022/06/02 04:54:16;;;;;;;;;;;;;;;21.49;44.27;100319.97;6244943;23;19931;-78
2022/06/02 04:56:58;;;;;;;;;;;;;;;21.56;44.27;100321.00;6245981;22;19919;-78
2022/06/02 04:59:39;;;;;;;;;;;;;;;21.65;44.03;100318.28;6219597;23;19926;-76
2022/06/02 05:02:24;;;;;;;;;;;;;;;21.76;43.83;100320.66;6219411;23;19919;-80
2022/06/02 05:05:02;;;;;;;;;;;;;;;21.87;43.83;100320.28;6243768;23;19969;-80
2022/06/02 05:07:46;;;;;;;;;;;;;;;21.98;43.92;100325.38;6245035;23;19919;-79
2022/06/02 05:10:18;;;;;;;;;;;;;;;22.05;43.56;100325.53;6219456;23;20259;-77
2022/06/02 05:12:47;;;;;;;;;;;;;;;22.10;43.95;100333.19;6244647;23;19920;-79
2022/06/02 05:15:43;;;;;;;;;;;;;;;22.21;44.07;100327.41;6194635;23;20337;-78
2022/06/02 05:18:34;;;;;;;;;;;;;;;22.27;43.61;100324.00;6219879;23;19951;-80
2022/06/02 05:21:00;;;;;;;;;;;;;;;22.51;43.35;100326.63;6244073;23;19919;-78
2022/06/02 05:23:44;;;;;;;;;;;;;;;22.70;43.30;100325.34;6194445;23;20002;-75
2022/06/02 05:26:10;;;;;;;;;;;;;;;22.74;42.26;100326.69;6244889;23;20002;-77
2022/06/02 05:28:51;;;;;;;;;;;;;;;22.81;40.95;100321.38;6194285;23;19947;-76
2022/06/02 05:31:35;;;;;;;;;;;;;;;22.85;40.95;100321.88;6219593;23;19919;-74
2022/06/02 05:34:18;;;;;;;;;;;;;;;23.12;40.92;100326.00;6193322;23;19973;-79
2022/06/02 05:37:13;;;;;;;;;;;;;;;23.36;40.66;100316.84;6219068;23;19919;-77
2022/06/02 05:39:39;;;;;;;;;;;;;;;23.55;39.77;100313.59;6210910;23;20370;-77
2022/06/02 05:42:08;;;;;;;;;;;;;;;23.56;39.54;100315.28;6194181;23;19920;-77
2022/06/02 05:44:57;;;;;;;;;;;;;;;23.66;39.36;100310.47;6219119;23;20359;-75
2022/06/02 05:47:33;;;;;;;;;;;;;;;23.52;36.47;100309.34;6215339;23;19919;-76
2022/06/02 05:50:06;;;;;;;;;;;;;;;23.51;35.83;100302.19;6194738;23;19919;-77
2022/06/02 05:52:38;;;;;;;;;;;;;;;23.84;36.41;100306.53;6194951;23;19969;-77
2022/06/02 05:55:10;;;;;;;;;;;;;;;23.80;33.83;100311.53;6219894;23;20057;-76
2022/06/02 05:57:52;;;;;;;;;;;;;;;23.87;32.54;100307.03;6220108;23;19926;-77
2022/06/02 06:00:25;;;;;;;;;;;;;;;24.04;32.21;100295.94;6218733;23;20328;-76
2022/06/02 06:03:18;;;;;;;;;;;;;;;24.05;32.13;100293.00;6244868;23;19924;-76
2022/06/02 06:05:46;;;;;;;;;;;;;;;24.03;30.98;100296.97;6197692;23;19919;-78
2022/06/02 06:08:24;;;;;;;;;;;;;;;24.13;32.07;100289.34;6221998;23;19994;-77
2022/06/02 06:10:53;;;;;;;;;;;;;;;24.22;30.07;100288.19;6196797;23;19923;-76
2022/06/02 06:13:54;;;;;;;;;;;;;;;24.20;29.41;100298.50;6196835;23;19926;-76
2022/06/02 06:16:26;;;;;;;;;;;;;;;24.11;29.69;100292.28;6189972;23;19920;-75
2022/06/02 06:18:52;;;;;;;;;;;;;;;24.49;29.46;100289.47;6188632;23;19947;-76
2022/06/02 06:21:37;;;;;;;;;;;;;;;24.63;29.74;100285.00;6196951;23;19919;-76
2022/06/02 06:24:14;;;;;;;;;;;;;;;24.66;29.57;100279.16;6246086;23;19920;-76
2022/06/02 06:26:45;;;;;;;;;;;;;;;24.78;29.19;100276.78;6221608;23;19920;-76
2022/06/02 06:29:23;;;;;;;;;;;;;;;24.93;29.33;100278.41;6221521;23;19920;-75
2022/06/02 06:31:54;;;;;;;;;;;;;;;25.22;29.35;100273.94;6220299;23;19965;-76
2022/06/02 06:34:23;;;;;;;;;;;;;;;25.17;28.11;100268.19;6195792;23;19974;-75
2022/06/02 06:36:52;;;;;;;;;;;;;;;25.21;26.98;100268.66;6246322;23;19927;-75
2022/06/02 06:39:18;;;;;;;;;;;;;;;25.13;24.74;100269.63;6196301;23;19947;-76
2022/06/02 06:42:03;;;;;;;;;;;;;;;25.05;26.59;100267.84;6220698;23;19965;-76
2022/06/02 06:44:38;;;;;;;;;;;;;;;25.33;27.11;100270.66;6245131;23;19919;-76
2022/06/02 06:47:08;;;;;;;;;;;;;;;25.66;27.00;100270.13;6219498;23;20018;-76
2022/06/02 06:49:55;;;;;;;;;;;;;;;25.73;27.02;100260.06;6219191;23;19919;-75
2022/06/02 06:52:39;;;;;;;;;;;;;;;25.90;25.58;100264.22;6194690;23;19920;-76
2022/06/02 06:55:24;;;;;;;;;;;;;;;25.35;25.34;100263.13;6244464;23;20380;-77
2022/06/02 06:58:02;;;;;;;;;;;;;;;25.42;25.87;100263.16;6219272;23;19919;-75
2022/06/02 07:00:27;;;;;;;;;;;;;;;25.62;25.41;100261.44;6244547;23;19923;-76
2022/06/02 07:02:55;;;;;;;;;;;;;;;25.56;25.06;100251.28;6245928;22;20276;-76
2022/06/02 07:05:42;;;;;;;;;;;;;;;25.76;24.43;100247.84;6219212;23;19919;-76
2022/06/02 07:08:27;;;;;;;;;;;;;;;26.01;24.35;100254.59;6219242;23;19930;-76
2022/06/02 07:11:02;;;;;;;;;;;;;;;26.05;24.71;100260.50;6194456;23;19927;-75
2022/06/02 07:13:38;;;;;;;;;;;;;;;26.34;25.11;100246.56;6194550;23;19924;-75
2022/06/02 07:16:18;;;;;;;;;;;;;;;26.33;24.10;100244.88;6219645;23;19979;-76
2022/06/02 07:18:50;;;;;;;;;;;;;;;26.21;24.40;100251.97;6245127;23;20669;-76
2022/06/02 07:21:34;;;;;;;;;;;;;;;26.03;23.98;100251.66;6195109;23;19920;-78
2022/06/02 07:24:09;;;;;;;;;;;;;;;26.02;24.01;100249.94;6244408;23;19923;-76
2022/06/02 07:26:53;;;;;;;;;;;;;;;26.23;24.32;100246.28;6220056;23;19919;-77
2022/06/02 07:29:19;;;;;;;;;;;;;;;26.35;23.08;100248.25;6246830;23;19927;-76
2022/06/02 07:31:48;;;;;;;;;;;;;;;26.39;23.55;100249.53;6219740;23;19919;-75
2022/06/02 07:34:17;;;;;;;;;;;;;;;26.64;22.49;100240.81;6219500;23;19924;-76
2022/06/02 07:36:42;;;;;;;;;;;;;;;26.95;23.09;100240.25;6244493;23;19942;-75
2022/06/02 07:39:28;;;;;;;;;;;;;;;27.13;22.32;100239.69;6244704;23;20348;-75
2022/06/02 07:42:06;;;;;;;;;;;;;;;27.16;22.17;100239.28;6184452;23;19919;-75
2022/06/02 07:44:47;;;;;;;;;;;;;;;26.91;22.78;100232.66;6220827;23;19920;-76
2022/06/02 07:47:16;;;;;;;;;;;;;;;27.38;23.35;100231.66;6245730;23;19923;-74
2022/06/02 07:49:54;;;;;;;;;;;;;;;27.60;22.54;100241.38;6247270;23;20263;-75
2022/06/02 07:52:39;;;;;;;;;;;;;;;27.66;23.35;100236.13;6248913;23;20335;-75
2022/06/02 07:55:19;;;;;;;;;;;;;;;27.24;22.10;100240.97;6248897;23;19923;-76
2022/06/02 07:57:51;;;;;;;;;;;;;;;27.09;22.78;100227.41;6249122;22;20306;-75
2022/06/02 08:00:16;;;;;;;;;;;;;;;27.19;22.23;100238.00;6246060;23;20251;-75
2022/06/02 08:02:43;;;;;;;;;;;;;;;27.35;22.94;100224.72;6196742;23;19927;-75
2022/06/02 08:05:24;;;;;;;;;;;;;;;27.46;23.29;100228.75;6220541;23;19919;-76
2022/06/02 08:07:59;;;;;;;;;;;;;;;27.23;22.59;100218.19;6245658;23;19920;-75
2022/06/02 08:10:40;;;;;;;;;;;;;;;27.40;22.36;100228.75;6221267;23;19920;-75
2022/06/02 08:13:14;;;;;;;;;;;;;;;27.46;22.41;100216.91;6245713;23;19926;-76
2022/06/02 08:16:00;;;;;;;;;;;;;;;27.24;22.01;100225.34;6195259;23;19926;-74
2022/06/02 08:18:30;;;;;;;;;;;;;;;27.31;22.26;100215.22;6244889;23;19934;-76
2022/06/02 08:21:15;;;;;;;;;;;;;;;27.31;22.33;100203.41;6220172;23;19919;-76
2022/06/02 08:23:56;;;;;;;;;;;;;;;27.70;22.41;100204.41;6245053;23;20011;-76
2022/06/02 08:26:34;;;;;;;;;;;;;;;28.20;22.68;100194.59;6219463;23;19919;-75
2022/06/02 08:29:12;;;;;;;;;;;;;;;28.75;22.57;100197.75;6220367;23;19919;-76
2022/06/02 08:31:47;;;;;;;;;;;;;;;28.93;21.43;100198.91;6219693;23;20394;-76
2022/06/02 08:34:28;;;;;;;;;;;;;;;28.62;21.52;100206.06;6219387;23;20366;-75
2022/06/02 08:37:02;;;;;;;;;;;;;;;28.75;21.98;100200.50;6194836;23;19919;-76
2022/06/02 08:39:36;;;;;;;;;;;;;;;28.76;21.41;100202.16;6195002;23;19924;-76
2022/06/02 08:42:08;;;;;;;;;;;;;;;28.63;21.18;100193.19;6244717;23;19926;-77
2022/06/02 08:44:54;;;;;;;;;;;;;;;28.65;21.96;100196.53;6219616;23;19920;-78
2022/06/02 08:47:39;;;;;;;;;;;;;;;28.93;22.71;100187.91;6195108;23;20046;-77
2022/06/02 08:50:23;;;;;;;;;;;;;;;29.19;22.12;100185.00;6245176;23;19920;-76
2022/06/02 08:52:52;;;;;;;;;;;;;;;29.43;21.71;100176.94;6219651;23;19919;-76
2022/06/02 08:55:37;;;;;;;;;;;;;;;29.79;21.30;100183.59;6219356;23;19928;-76
2022/06/02 08:58:12;;;;;;;;;;;;;;;29.87;20.84;100180.56;6245139;23;20004;-76
2022/06/02 09:00:56;;;;;;;;;;;;;;;29.67;20.58;100181.59;6246843;22;19924;-76
2022/06/02 09:03:41;;;;;;;;;;;;;;;29.92;20.73;100166.94;6245030;23;20366;-76
2022/06/02 09:06:10;;;;;;;;;;;;;;;29.85;20.59;100171.66;6246134;22;19919;-75
2022/06/02 09:08:54;;;;;;;;;;;;;;;30.05;20.73;100172.28;6219576;23;19989;-75
2022/06/02 09:11:26;;;;;;;;;;;;;;;30.46;20.70;100163.28;6246223;22;19920;-76
2022/06/02 09:14:01;;;;;;;;;;;;;;;30.77;20.75;100163.31;6192986;23;19919;-75
2022/06/02 09:16:30;;;;;;;;;;;;;;;30.81;20.18;100161.78;6217916;23;20413;-76
2022/06/02 09:18:55;;;;;;;;;;;;;;;30.67;20.90;100164.72;6242967;23;20264;-75
2022/06/02 09:21:33;;;;;;;;;;;;;;;30.55;20.29;100161.06;6217938;23;19919;-76
2022/06/02 09:24:05;;;;;;;;;;;;;;;30.28;19.99;100155.06;6217768;23;20404;-75
2022/06/02 09:26:51;;;;;;;;;;;;;;;30.31;20.39;100159.25;6217820;23;19920;-77
2022/06/02 09:29:23;;;;;;;;;;;;;;;30.22;20.31;100156.84;6192672;23;19920;-75
2022/06/02 09:32:08;;;;;;;;;;;;;;;30.19;20.67;100154.53;6192786;23;19919;-75
2022/06/02 09:34:41;;;;;;;;;;;;;;;30.60;20.42;100160.38;6192751;23;20002;-76
2022/06/02 09:37:10;;;;;;;;;;;;;;;30.42;20.26;100155.72;6193264;23;19919;-75
2022/06/02 09:39:54;;;;;;;;;;;;;;;30.88;19.95;100148.72;6193420;23;19926;-75
2022/06/02 09:42:26;;;;;;;;;;;;;;;31.44;19.94;100150.13;6219471;23;19926;-75
2022/06/02 09:45:11;;;;;;;;;;;;;;;31.58;20.10;100147.97;6220016;23;19926;-74
2022/06/02 09:47:55;;;;;;;;;;;;;;;31.92;20.57;100143.50;6245616;23;19954;-75
2022/06/02 09:50:23;;;;;;;;;;;;;;;32.60;19.38;100139.94;6246184;22;20250;-76
2022/06/02 09:52:49;;;;;;;;;;;;;;;33.07;19.31;100134.16;6244907;23;20251;-75
2022/06/02 09:55:21;;;;;;;;;;;;;;;33.37;18.67;100144.06;6219963;23;19932;-76
2022/06/02 09:58:05;;;;;;;;;;;;;;;33.16;18.11;100136.50;6219075;23;19920;-76
2022/06/02 10:00:44;;;;;;;;;;;;;;;32.55;18.65;100137.09;6194060;23;19990;-76
2022/06/02 10:03:09;;;;;;;;;;;;;;;33.11;18.43;100138.09;6195859;23;19926;-76
2022/06/02 10:05:44;;;;;;;;;;;;;;;32.77;18.36;100141.91;6246790;23;19919;-75
2022/06/02 10:08:10;;;;;;;;;;;;;;;32.83;19.24;100132.59;6245015;23;19923;-75
2022/06/02 10:10:39;;;;;;;;;;;;;;;33.13;18.32;100132.31;6219009;23;19920;-75
2022/06/02 10:13:24;;;;;;;;;;;;;;;33.58;17.87;100134.97;6218873;23;19920;-75
2022/06/02 10:16:03;;;;;;;;;;;;;;;33.00;17.92;100122.41;6243897;23;19919;-75
2022/06/02 10:18:58;;;;;;;;;;;;;;;33.27;17.99;100128.09;6194432;23;19942;-76
2022/06/02 10:21:24;;;;;;;;;;;;;;;33.40;18.10;100128.84;6230685;23;20059;-75
2022/06/02 10:24:08;;;;;;;;;;;;;;;34.10;17.35;100124.59;6218914;23;19927;-75
2022/06/02 10:26:47;;;;;;;;;;;;;;;34.52;17.00;100122.88;6244559;23;19919;-76
2022/06/02 10:29:38;;;;;;;;;;;;;;;34.86;16.83;100122.66;6245685;22;19920;-77
2022/06/02 10:32:21;;;;;;;;;;;;;;;34.31;16.77;100120.97;6219194;23;19962;-76
2022/06/02 10:34:54;;;;;;;;;;;;;;;34.53;16.90;100130.13;6193966;23;19965;-76
2022/06/02 10:37:39;;;;;;;;;;;;;;;34.91;16.94;100114.38;6218699;23;19919;-76
2022/06/02 10:40:14;;;;;;;;;;;;;;;34.61;17.26;100122.44;6218728;23;19924;-75
2022/06/02 10:42:51;;;;;;;;;;;;;;;35.04;16.97;100113.97;6244137;23;20347;-75
2022/06/02 10:45:36;;;;;;;;;;;;;;;35.56;16.50;100120.75;6218974;23;19919;-76
2022/06/02 10:48:17;;;;;;;;;;;;;;;35.64;16.02;100109.13;6218468;23;20302;-76
2022/06/02 10:50:42;;;;;;;;;;;;;;;35.14;16.04;100116.00;6246037;23;19923;-76
2022/06/02 10:53:27;;;;;;;;;;;;;;;34.60;16.79;100113.25;6220461;23;20236;-75
2022/06/02 10:56:11;;;;;;;;;;;;;;;33.84;17.14;100099.28;6246031;23;19919;-75
2022/06/02 10:58:54;;;;;;;;;;;;;;;34.06;17.77;100093.75;6197923;23;19919;-92
2022/06/02 11:01:36;;;;;;;;;;;;;;;34.88;17.61;100095.47;6224221;23;19919;-90
2022/06/02 11:04:13;;;;;;;;;;;;;;;35.12;17.21;100103.47;6197776;23;19927;-87
2022/06/02 11:06:48;;;;;;;;;;;;;;;35.69;17.33;100102.72;6198447;23;19980;-83
2022/06/02 11:09:32;;;;;;;;;;;;;;;35.60;17.49;100099.63;6222213;23;19919;-90
2022/06/02 11:12:17;;;;;;;;;;;;;;;36.70;16.83;100090.28;6227461;23;19938;-91
2022/06/02 11:15:15;;;;;;;;;;;;;;;37.52;15.54;100085.53;6206009;23;19947;-88
2022/06/02 11:18:06;;;;;;;;;;;;;;;37.65;15.92;100084.09;6206582;23;19927;-89
2022/06/02 11:20:42;;;;;;;;;;;;;;;37.37;15.76;100091.97;6219071;23;19926;-89
2022/06/02 11:23:17;;;;;;;;;;;;;;;37.56;16.12;100080.22;6223923;23;19951;-92
2022/06/02 11:25:46;;;;;;;;;;;;;;;37.92;16.37;100066.19;6224225;23;19970;-91
2022/06/02 11:28:12;;;;;;;;;;;;;;;37.78;16.41;100072.34;6228670;23;19927;-86
2022/06/02 11:31:08;;;;;;;;;;;;;;;37.77;16.50;100075.44;6232385;23;19919;-92
2022/06/02 11:33:44;;;;;;;;;;;;;;;37.56;15.80;100066.28;6203609;23;20268;-89
2022/06/02 11:36:10;;;;;;;;;;;;;;;37.53;16.11;100064.06;6202106;23;19920;-93
2022/06/02 11:38:38;;;;;;;;;;;;;;;37.91;15.82;100062.53;6253200;23;20307;-95
2022/06/02 11:41:23;;;;;;;;;;;;;;;37.67;15.79;100059.53;6226848;23;19927;-91
2022/06/02 11:44:07;;;;;;;;;;;;;;;38.18;15.97;100064.91;6231430;23;19919;-88
2022/06/02 11:46:36;;;;;;;;;;;;;;;37.33;15.11;100067.72;6195964;23;20022;-77
2022/06/02 11:49:02;;;;;;;;;;;;;;;37.65;15.45;100064.56;6247596;23;19927;-76
2022/06/02 11:51:46;;;;;;;;;;;;;;;37.46;14.84;100063.50;6194787;23;19928;-78
2022/06/02 11:54:31;;;;;;;;;;;;;;;38.39;14.80;100049.72;6219894;23;19919;-79
2022/06/02 11:57:09;;;;;;;;;;;;;;;39.33;14.35;100055.06;6195230;23;19920;-77
2022/06/02 11:59:41;;;;;;;;;;;;;;;39.09;14.25;100051.41;6219695;23;20216;-77
2022/06/02 12:02:35;;;;;;;;;;;;;;;39.47;13.81;100051.59;6219885;23;19920;-77
2022/06/02 12:05:21;;;;;;;;;;;;;;;39.32;14.16;100045.03;6219798;23;19926;-76
2022/06/02 12:07:50;;;;;;;;;;;;;;;40.11;14.01;100039.03;6209659;23;19920;-75
2022/06/02 12:10:34;;;;;;;;;;;;;;;40.74;14.01;100035.00;6245223;23;19927;-76
2022/06/02 12:13:03;;;;;;;;;;;;;;;40.85;12.99;100035.63;6219767;23;20022;-75
2022/06/02 12:15:35;;;;;;;;;;;;;;;40.74;13.36;100038.63;6246506;22;19954;-76
2022/06/02 12:18:10;;;;;;;;;;;;;;;40.86;13.05;100037.31;6219941;23;19920;-76
2022/06/02 12:20:48;;;;;;;;;;;;;;;40.77;13.37;100035.22;6246537;23;19919;-75
2022/06/02 12:23:32;;;;;;;;;;;;;;;39.41;13.99;100041.56;6219791;23;19924;-75
2022/06/02 12:26:04;;;;;;;;;;;;;;;39.62;13.81;100036.59;6244506;23;19923;-76
2022/06/02 12:28:48;;;;;;;;;;;;;;;39.64;13.95;100034.31;6219530;23;19919;-75
2022/06/02 12:31:34;;;;;;;;;;;;;;;39.89;13.71;100030.38;6219312;23;20025;-76
2022/06/02 12:34:26;;;;;;;;;;;;;;;39.24;14.31;100026.09;6246441;23;20339;-76
2022/06/02 12:37:04;;;;;;;;;;;;;;;40.07;14.62;100015.56;6221248;23;19926;-77
2022/06/02 12:39:44;;;;;;;;;;;;;;;40.96;13.68;100015.53;6245127;23;19947;-77
2022/06/02 12:42:23;;;;;;;;;;;;;;;40.53;13.29;100020.47;6244427;23;19919;-77
2022/06/02 12:44:52;;;;;;;;;;;;;;;40.01;13.51;100016.75;6194899;23;20221;-77
2022/06/02 12:47:29;;;;;;;;;;;;;;;39.99;13.72;100024.66;6194338;23;19927;-77
2022/06/02 12:50:09;;;;;;;;;;;;;;;40.72;13.58;100010.06;6220005;23;20022;-76
2022/06/02 12:52:58;;;;;;;;;;;;;;;40.81;13.03;100013.00;6218646;23;20355;-76
2022/06/02 12:55:37;;;;;;;;;;;;;;;41.31;13.00;100016.03;6217389;23;19919;-78
2022/06/02 12:58:24;;;;;;;;;;;;;;;41.90;12.93;100011.47;6244947;23;19919;-78
2022/06/02 13:01:12;;;;;;;;;;;;;;;41.77;12.95;100006.66;6246296;22;19926;-78
2022/06/02 13:03:56;;;;;;;;;;;;;;;41.80;12.68;100005.22;6194216;23;20070;-76
2022/06/02 13:06:25;;;;;;;;;;;;;;;40.66;13.58;99997.31;6194723;23;19927;-76
2022/06/02 13:09:11;;;;;;;;;;;;;;;39.29;13.99;100000.88;6246119;22;19930;-75
2022/06/02 13:11:49;;;;;;;;;;;;;;;38.76;14.75;100014.78;6195148;23;20440;-75
2022/06/02 13:14:47;;;;;;;;;;;;;;;39.62;14.16;99998.25;6245374;23;19919;-75
2022/06/02 13:17:31;;;;;;;;;;;;;;;39.74;14.54;100000.63;6185233;23;20288;-77
2022/06/02 13:20:00;;;;;;;;;;;;;;;40.45;13.54;99998.75;6194195;23;20294;-75
2022/06/02 13:22:35;;;;;;;;;;;;;;;40.27;13.38;99992.84;6219518;23;19927;-77
2022/06/02 13:25:20;;;;;;;;;;;;;;;41.08;13.47;99989.00;6221090;23;19949;-76
2022/06/02 13:27:48;;;;;;;;;;;;;;;41.87;12.43;99992.44;6194399;23;19926;-76
2022/06/02 13:30:33;;;;;;;;;;;;;;;41.39;12.60;99984.44;6218598;23;19920;-77
2022/06/02 13:33:19;;;;;;;;;;;;;;;40.50;13.52;99985.47;6194032;23;20358;-76
2022/06/02 13:36:09;;;;;;;;;;;;;;;39.93;14.21;99976.28;6215951;23;19926;-77
2022/06/02 13:38:53;;;;;;;;;;;;;;;39.53;14.46;99984.09;6244046;23;19926;-77